Time;durP1;ratioP1;P1;durP2;ratioP2;P2;SDS_P1;SDS_P2;PMS_P1;PMS_P2;Temp;Humidity;BMP_temperature;BMP_pressure;BME280_temperature;BME280_humidity;BME280_pressure;Samples;Min_cycle;Max_cycle;Signal;HPM_P1;HPM_P2
2023/01/24 00:01:13;;;;;;;46.05;19.13;;;;;;;;;;4997702;28;20046;-76
2023/01/24 00:03:40;;;;;;;50.60;19.65;;;;;;;;;;4997462;28;20073;-77
2023/01/24 00:06:07;;;;;;;43.45;19.38;;;;;;;;;;4996572;28;20065;-76
2023/01/24 00:08:34;;;;;;;46.47;20.20;;;;;;;;;;4996195;28;20077;-78
2023/01/24 00:11:01;;;;;;;45.75;19.50;;;;;;;;;;4995762;28;20078;-77
2023/01/24 00:13:28;;;;;;;45.28;19.85;;;;;;;;;;4996115;28;20050;-77
2023/01/24 00:16:05;;;;;;;45.28;18.73;;;;;;;;;;4996302;28;20592;-78
2023/01/24 00:18:34;;;;;;;50.38;20.23;;;;;;;;;;4996428;28;20088;-77
2023/01/24 00:21:02;;;;;;;47.42;19.50;;;;;;;;;;4998500;28;20057;-79
2023/01/24 00:23:29;;;;;;;44.25;18.35;;;;;;;;;;5002709;28;20077;-77
2023/01/24 00:25:56;;;;;;;48.33;19.65;;;;;;;;;;5010175;28;20050;-75
2023/01/24 00:28:22;;;;;;;52.88;20.83;;;;;;;;;;5012557;28;20041;-76
2023/01/24 00:30:49;;;;;;;50.42;20.20;;;;;;;;;;5009357;28;20078;-77
2023/01/24 00:33:17;;;;;;;46.10;20.00;;;;;;;;;;4998369;28;20074;-78
2023/01/24 00:35:44;;;;;;;51.53;20.98;;;;;;;;;;4998265;28;20734;-78
2023/01/24 00:38:10;;;;;;;48.70;21.30;;;;;;;;;;4999444;28;20133;-77
2023/01/24 00:40:37;;;;;;;49.58;19.42;;;;;;;;;;4996046;28;20042;-79
2023/01/24 00:43:04;;;;;;;47.92;21.02;;;;;;;;;;4995032;28;20100;-77
2023/01/24 00:45:30;;;;;;;55.88;22.13;;;;;;;;;;4994392;28;20086;-76
2023/01/24 00:47:57;;;;;;;50.15;21.10;;;;;;;;;;4995085;28;20047;-77
2023/01/24 00:50:25;;;;;;;49.95;20.05;;;;;;;;;;4994242;28;20081;-76
2023/01/24 00:52:52;;;;;;;53.10;20.92;;;;;;;;;;4995365;28;20060;-78
2023/01/24 00:55:19;;;;;;;52.35;20.42;;;;;;;;;;4995674;28;20126;-75
2023/01/24 00:57:45;;;;;;;47.40;20.67;;;;;;;;;;4995878;28;20093;-77
2023/01/24 01:00:13;;;;;;;44.92;19.60;;;;;;;;;;4996853;28;20046;-76
2023/01/24 01:02:40;;;;;;;46.03;20.13;;;;;;;;;;5000163;28;20137;-77
2023/01/24 01:05:07;;;;;;;42.63;19.95;;;;;;;;;;4999276;28;20050;-76
2023/01/24 01:07:36;;;;;;;47.35;19.48;;;;;;;;;;5000916;28;20133;-77
2023/01/24 01:10:03;;;;;;;46.30;21.13;;;;;;;;;;4994762;28;20110;-77
2023/01/24 01:12:30;;;;;;;48.10;19.83;;;;;;;;;;4995105;28;20074;-76
2023/01/24 01:14:57;;;;;;;44.28;19.52;;;;;;;;;;4994954;28;20085;-75
2023/01/24 01:17:23;;;;;;;45.60;20.35;;;;;;;;;;4994613;28;20078;-76
2023/01/24 01:19:51;;;;;;;44.13;19.65;;;;;;;;;;4993271;28;20097;-78
2023/01/24 01:22:18;;;;;;;44.35;18.70;;;;;;;;;;4993097;28;20078;-78
2023/01/24 01:24:47;;;;;;;41.13;19.10;;;;;;;;;;4992888;28;20042;-78
2023/01/24 01:27:13;;;;;;;39.60;19.33;;;;;;;;;;4992864;28;20050;-77
2023/01/24 01:29:40;;;;;;;41.63;17.73;;;;;;;;;;4992945;28;20509;-78
2023/01/24 01:32:07;;;;;;;40.85;19.17;;;;;;;;;;4992707;28;20133;-76
2023/01/24 01:34:34;;;;;;;44.60;17.88;;;;;;;;;;4993067;28;20413;-77
2023/01/24 01:37:01;;;;;;;33.75;16.30;;;;;;;;;;4992933;28;20105;-79
2023/01/24 01:39:28;;;;;;;42.58;18.75;;;;;;;;;;4993517;28;20093;-77
2023/01/24 01:41:56;;;;;;;38.20;17.80;;;;;;;;;;4992612;28;20058;-78
2023/01/24 01:44:40;;;;;;;42.47;18.73;;;;;;;;;;4993063;28;20454;-79
2023/01/24 01:47:18;;;;;;;39.17;16.98;;;;;;;;;;4992601;28;20078;-77
2023/01/24 01:49:49;;;;;;;43.70;18.88;;;;;;;;;;4993073;28;20556;-77
2023/01/24 01:52:17;;;;;;;35.30;15.77;;;;;;;;;;4992656;28;20093;-77
2023/01/24 01:54:46;;;;;;;36.92;16.40;;;;;;;;;;4993014;28;20452;-77
2023/01/24 01:57:18;;;;;;;42.88;17.52;;;;;;;;;;4996136;28;20082;-79
2023/01/24 01:59:50;;;;;;;40.35;18.10;;;;;;;;;;4997018;28;20050;-78
2023/01/24 02:02:19;;;;;;;38.70;16.90;;;;;;;;;;4995690;28;20051;-77
2023/01/24 02:04:50;;;;;;;44.65;18.00;;;;;;;;;;4991855;28;20074;-77
2023/01/24 02:07:21;;;;;;;45.15;18.25;;;;;;;;;;4995434;28;20046;-77
2023/01/24 02:09:50;;;;;;;38.83;16.73;;;;;;;;;;4999471;28;20047;-77
2023/01/24 02:12:21;;;;;;;38.72;16.75;;;;;;;;;;4999315;28;20182;-78
2023/01/24 02:17:51;;;;;;;40.63;16.42;;;;;;;;;;4965367;28;20104;-77
2023/01/24 02:20:36;;;;;;;41.38;17.38;;;;;;;;;;5010644;28;20046;-77
2023/01/24 02:23:14;;;;;;;42.38;17.92;;;;;;;;;;4975423;28;20051;-77
2023/01/24 02:25:46;;;;;;;48.08;18.67;;;;;;;;;;4977391;28;20050;-77
2023/01/24 02:28:14;;;;;;;40.22;18.23;;;;;;;;;;4994996;28;20046;-76
2023/01/24 02:30:41;;;;;;;40.30;17.67;;;;;;;;;;4992611;28;20133;-77
2023/01/24 02:33:13;;;;;;;44.92;18.50;;;;;;;;;;4993305;28;20125;-76
2023/01/24 02:35:40;;;;;;;48.95;18.33;;;;;;;;;;4994195;28;20110;-76
2023/01/24 02:38:13;;;;;;;46.53;18.65;;;;;;;;;;4996252;28;20052;-76
2023/01/24 02:40:41;;;;;;;42.75;18.02;;;;;;;;;;4996505;28;20085;-77
2023/01/24 02:43:10;;;;;;;44.80;19.50;;;;;;;;;;4996214;28;20133;-76
2023/01/24 02:45:38;;;;;;;44.83;17.35;;;;;;;;;;4991822;28;20054;-74
2023/01/24 02:48:05;;;;;;;45.38;19.88;;;;;;;;;;4996609;28;20145;-76
2023/01/24 02:53:28;;;;;;;42.95;19.52;;;;;;;;;;4996397;28;20141;-76
2023/01/24 02:53:29;;;;;;;41.25;17.30;;;;;;;;;;4996449;28;20065;-76
2023/01/24 02:58:40;;;;;;;48.20;17.50;;;;;;;;;;5001319;28;20433;-78
2023/01/24 03:01:08;;;;;;;47.50;19.10;;;;;;;;;;5000967;28;20073;-77
2023/01/24 03:03:34;;;;;;;47.25;18.00;;;;;;;;;;4999939;28;20056;-79
2023/01/24 03:06:01;;;;;;;48.15;19.35;;;;;;;;;;4986550;28;20129;-77
2023/01/24 03:08:29;;;;;;;41.85;18.00;;;;;;;;;;4982648;28;20062;-77
2023/01/24 03:10:56;;;;;;;46.42;18.15;;;;;;;;;;5001712;28;20042;-77
2023/01/24 03:35:22;;;;;;;51.28;20.33;;;;;;;;;;4996107;28;20428;-76
2023/01/24 03:40:33;;;;;;;40.00;17.67;;;;;;;;;;4976662;28;20070;-77
2023/01/24 03:43:00;;;;;;;51.72;20.30;;;;;;;;;;4976872;28;20569;-76
2023/01/24 03:45:28;;;;;;;48.88;19.88;;;;;;;;;;4995472;28;20050;-77
2023/01/24 03:47:59;;;;;;;47.22;19.10;;;;;;;;;;4996447;28;20058;-76
2023/01/24 03:53:13;;;;;;;52.17;19.73;;;;;;;;;;4996617;28;20061;-76
2023/01/24 03:55:40;;;;;;;50.60;18.95;;;;;;;;;;4996850;28;20078;-76
2023/01/24 03:58:08;;;;;;;53.50;20.50;;;;;;;;;;4996578;28;20082;-77
2023/01/24 04:00:35;;;;;;;48.22;19.33;;;;;;;;;;4996199;28;20129;-77
2023/01/24 04:03:03;;;;;;;46.70;19.60;;;;;;;;;;4995990;28;20047;-77
2023/01/24 04:05:31;;;;;;;46.30;19.13;;;;;;;;;;4995690;28;20090;-77
2023/01/24 04:07:57;;;;;;;49.72;19.65;;;;;;;;;;4996722;28;20046;-76
2023/01/24 04:10:24;;;;;;;47.90;18.73;;;;;;;;;;4995175;28;20183;-77
2023/01/24 04:12:51;;;;;;;48.92;20.50;;;;;;;;;;4996017;28;20494;-78
2023/01/24 04:15:20;;;;;;;47.75;18.98;;;;;;;;;;4996388;28;20410;-76
2023/01/24 04:17:47;;;;;;;44.25;20.02;;;;;;;;;;4997013;28;20501;-76
2023/01/24 04:20:17;;;;;;;46.72;19.65;;;;;;;;;;5007118;28;20053;-79
2023/01/24 04:22:44;;;;;;;48.78;20.25;;;;;;;;;;5018271;28;20045;-79
2023/01/24 04:25:11;;;;;;;45.63;18.80;;;;;;;;;;5018085;28;20065;-77
2023/01/24 04:27:37;;;;;;;45.90;18.73;;;;;;;;;;5018120;28;20041;-79
2023/01/24 04:30:06;;;;;;;46.53;19.13;;;;;;;;;;5018568;28;20089;-78
2023/01/24 04:32:32;;;;;;;49.72;19.27;;;;;;;;;;5018129;28;20045;-77
2023/01/24 04:35:00;;;;;;;50.95;20.85;;;;;;;;;;5018818;28;20117;-80
2023/01/24 04:37:28;;;;;;;48.72;18.65;;;;;;;;;;5017720;28;20090;-78
2023/01/24 04:39:54;;;;;;;45.30;18.45;;;;;;;;;;5016469;28;20058;-75
2023/01/24 04:42:21;;;;;;;50.28;19.98;;;;;;;;;;5014781;28;20054;-77
2023/01/24 04:44:48;;;;;;;46.15;17.92;;;;;;;;;;5016853;28;20054;-78
2023/01/24 04:47:15;;;;;;;49.45;18.88;;;;;;;;;;5017989;28;20030;-78
2023/01/24 04:49:42;;;;;;;46.60;18.23;;;;;;;;;;4997496;28;20039;-79
2023/01/24 04:52:11;;;;;;;42.10;18.50;;;;;;;;;;4994887;28;20414;-78
2023/01/24 04:54:39;;;;;;;54.75;19.27;;;;;;;;;;5016196;28;20037;-78
2023/01/24 04:57:06;;;;;;;49.75;18.58;;;;;;;;;;5016247;28;20050;-78
2023/01/24 04:59:33;;;;;;;46.60;18.30;;;;;;;;;;5016333;28;20050;-77
2023/01/24 05:02:00;;;;;;;44.30;17.23;;;;;;;;;;5012354;28;20077;-78
2023/01/24 05:04:27;;;;;;;50.63;19.40;;;;;;;;;;5015773;28;20053;-76
2023/01/24 05:06:53;;;;;;;48.78;18.52;;;;;;;;;;4998521;28;20045;-78
2023/01/24 05:09:20;;;;;;;52.70;17.50;;;;;;;;;;5013224;28;20073;-78
2023/01/24 05:11:48;;;;;;;54.85;18.60;;;;;;;;;;5016121;28;20034;-79
2023/01/24 05:14:15;;;;;;;43.28;17.98;;;;;;;;;;5008334;28;20047;-77
2023/01/24 05:16:42;;;;;;;47.15;17.17;;;;;;;;;;5011844;28;20066;-79
2023/01/24 05:19:09;;;;;;;43.92;17.98;;;;;;;;;;5015881;28;20046;-75
2023/01/24 05:21:35;;;;;;;52.17;19.33;;;;;;;;;;5015916;28;20053;-78
2023/01/24 05:24:02;;;;;;;51.25;19.17;;;;;;;;;;5009054;28;20085;-75
2023/01/24 05:26:29;;;;;;;49.55;18.30;;;;;;;;;;4998151;28;20095;-76
2023/01/24 05:28:57;;;;;;;51.92;20.40;;;;;;;;;;5000196;28;20050;-76
2023/01/24 05:31:24;;;;;;;48.22;18.33;;;;;;;;;;4999302;28;20050;-76
2023/01/24 05:33:50;;;;;;;47.90;18.55;;;;;;;;;;4999722;28;20137;-77
2023/01/24 05:36:19;;;;;;;50.22;19.25;;;;;;;;;;5000905;28;20050;-76
2023/01/24 05:38:46;;;;;;;45.33;19.67;;;;;;;;;;5001936;28;20516;-77
2023/01/24 05:41:16;;;;;;;51.45;18.13;;;;;;;;;;5001199;28;20109;-75
2023/01/24 05:43:43;;;;;;;57.38;20.83;;;;;;;;;;4987454;28;20046;-79
2023/01/24 05:46:14;;;;;;;51.65;18.98;;;;;;;;;;5050008;22;20056;-74
2023/01/24 05:48:42;;;;;;;47.08;18.38;;;;;;;;;;5051284;28;20133;-73
2023/01/24 05:51:10;;;;;;;46.05;19.10;;;;;;;;;;5051696;28;20045;-75
2023/01/24 05:53:39;;;;;;;46.03;18.95;;;;;;;;;;5051088;28;20077;-75
2023/01/24 05:56:07;;;;;;;52.92;20.00;;;;;;;;;;5051705;28;20087;-75
2023/01/24 05:58:37;;;;;;;44.67;18.50;;;;;;;;;;5051422;28;20053;-74
2023/01/24 06:01:07;;;;;;;55.13;21.05;;;;;;;;;;5051282;28;20102;-75
2023/01/24 06:03:38;;;;;;;49.30;20.80;;;;;;;;;;5051347;28;20530;-74
2023/01/24 06:06:05;;;;;;;52.03;21.88;;;;;;;;;;5051576;28;20329;-75
2023/01/24 06:08:32;;;;;;;47.50;18.85;;;;;;;;;;5051870;28;20511;-73
2023/01/24 06:11:02;;;;;;;49.42;19.98;;;;;;;;;;5054039;28;20128;-74
2023/01/24 06:13:29;;;;;;;50.63;19.65;;;;;;;;;;5055035;28;20076;-73
2023/01/24 06:16:01;;;;;;;50.20;20.75;;;;;;;;;;5055961;28;20496;-73
2023/01/24 06:18:28;;;;;;;49.03;19.15;;;;;;;;;;5056797;28;20065;-73
2023/01/24 06:20:57;;;;;;;44.10;18.85;;;;;;;;;;5055875;28;20081;-73
2023/01/24 06:23:25;;;;;;;51.67;20.40;;;;;;;;;;5055212;28;20052;-73
2023/01/24 06:25:53;;;;;;;49.10;19.67;;;;;;;;;;5034848;28;20100;-72
2023/01/24 06:28:20;;;;;;;49.65;20.42;;;;;;;;;;5043542;28;20080;-73
2023/01/24 06:30:52;;;;;;;48.97;20.60;;;;;;;;;;5054875;28;20124;-73
2023/01/24 06:33:29;;;;;;;50.78;20.33;;;;;;;;;;5054544;28;20496;-73
2023/01/24 06:36:25;;;;;;;46.88;19.00;;;;;;;;;;5036277;28;20045;-74
2023/01/24 06:38:52;;;;;;;45.88;19.42;;;;;;;;;;5047739;28;20504;-74
2023/01/24 06:41:19;;;;;;;49.50;20.77;;;;;;;;;;5056292;28;20522;-74
2023/01/24 06:43:47;;;;;;;50.10;20.42;;;;;;;;;;5055203;28;20085;-74
2023/01/24 06:46:14;;;;;;;49.03;19.90;;;;;;;;;;5055485;28;20503;-74
2023/01/24 06:48:43;;;;;;;49.05;20.73;;;;;;;;;;5055227;28;20075;-74
2023/01/24 06:51:12;;;;;;;46.85;19.35;;;;;;;;;;5055176;28;20095;-73
2023/01/24 06:53:40;;;;;;;44.78;20.08;;;;;;;;;;5054527;28;20081;-74
2023/01/24 06:56:08;;;;;;;53.80;20.15;;;;;;;;;;5055119;28;20049;-72
2023/01/24 06:58:35;;;;;;;52.67;20.50;;;;;;;;;;5055120;28;20589;-73
2023/01/24 07:01:01;;;;;;;54.90;21.52;;;;;;;;;;5055512;28;20132;-73
2023/01/24 07:03:28;;;;;;;48.38;20.02;;;;;;;;;;5054993;28;20041;-74
2023/01/24 07:05:55;;;;;;;47.38;20.40;;;;;;;;;;5055291;28;20151;-73
2023/01/24 07:08:22;;;;;;;47.65;19.95;;;;;;;;;;5055027;28;20463;-73
2023/01/24 07:10:50;;;;;;;55.28;20.73;;;;;;;;;;5054763;28;20052;-75
2023/01/24 07:13:16;;;;;;;50.58;20.42;;;;;;;;;;5054480;28;20416;-74
2023/01/24 07:15:43;;;;;;;53.05;22.13;;;;;;;;;;5054668;28;20458;-73
2023/01/24 07:18:13;;;;;;;49.72;20.77;;;;;;;;;;5053949;28;20150;-73
2023/01/24 07:20:40;;;;;;;49.92;19.73;;;;;;;;;;5053617;28;20049;-73
2023/01/24 07:23:17;;;;;;;52.00;19.50;;;;;;;;;;5053428;28;20048;-75
2023/01/24 07:25:44;;;;;;;55.03;20.27;;;;;;;;;;5047627;28;20450;-74
2023/01/24 07:28:13;;;;;;;47.13;18.50;;;;;;;;;;5054092;28;20418;-73
2023/01/24 07:30:39;;;;;;;51.25;19.90;;;;;;;;;;5053845;28;20052;-73
2023/01/24 07:33:06;;;;;;;52.30;19.48;;;;;;;;;;5053488;28;20504;-73
2023/01/24 07:35:33;;;;;;;48.38;19.92;;;;;;;;;;5053334;28;20129;-72
2023/01/24 07:38:00;;;;;;;49.35;20.48;;;;;;;;;;5054019;28;20128;-72
2023/01/24 07:40:27;;;;;;;45.17;19.33;;;;;;;;;;5053520;28;20120;-73
2023/01/24 07:42:53;;;;;;;49.67;19.30;;;;;;;;;;5053697;28;20131;-74
2023/01/24 07:45:21;;;;;;;52.15;21.08;;;;;;;;;;5054298;28;20056;-74
2023/01/24 07:47:48;;;;;;;48.55;19.13;;;;;;;;;;5053680;28;20433;-74
2023/01/24 07:50:15;;;;;;;45.30;19.05;;;;;;;;;;5054962;28;20045;-74
2023/01/24 07:52:42;;;;;;;48.33;19.27;;;;;;;;;;5058192;28;20476;-74
2023/01/24 07:55:09;;;;;;;46.10;17.55;;;;;;;;;;5055768;28;20048;-74
2023/01/24 07:57:36;;;;;;;48.40;18.63;;;;;;;;;;5053699;28;20057;-73
2023/01/24 08:00:04;;;;;;;45.67;17.83;;;;;;;;;;5053429;28;20124;-74
2023/01/24 08:02:32;;;;;;;43.78;16.95;;;;;;;;;;5052889;28;20136;-74
2023/01/24 08:04:59;;;;;;;41.10;17.75;;;;;;;;;;5053651;28;20128;-74
2023/01/24 08:07:26;;;;;;;44.08;18.38;;;;;;;;;;5053142;28;20107;-74
2023/01/24 08:09:53;;;;;;;41.80;16.88;;;;;;;;;;5053642;28;20045;-74
2023/01/24 08:12:20;;;;;;;49.22;17.77;;;;;;;;;;5052557;28;20083;-74
2023/01/24 08:14:46;;;;;;;46.33;18.10;;;;;;;;;;5053327;28;20049;-74
2023/01/24 08:17:13;;;;;;;46.75;18.00;;;;;;;;;;5052499;28;20051;-74
2023/01/24 08:19:41;;;;;;;43.30;16.67;;;;;;;;;;5052937;28;20124;-73
2023/01/24 08:22:08;;;;;;;41.60;15.65;;;;;;;;;;5052935;28;20136;-74
2023/01/24 08:24:35;;;;;;;42.67;16.90;;;;;;;;;;5052932;28;20080;-74
2023/01/24 08:27:02;;;;;;;44.42;16.83;;;;;;;;;;5052251;28;20087;-74
2023/01/24 08:29:29;;;;;;;43.15;16.02;;;;;;;;;;5053103;28;20052;-74
2023/01/24 08:31:56;;;;;;;46.80;17.55;;;;;;;;;;5052840;28;20461;-73
2023/01/24 08:34:23;;;;;;;46.97;16.95;;;;;;;;;;5044543;28;20047;-73
2023/01/24 08:36:51;;;;;;;43.72;17.20;;;;;;;;;;5035873;28;20077;-74
2023/01/24 08:39:18;;;;;;;43.80;16.23;;;;;;;;;;5053193;28;20563;-74
2023/01/24 08:41:45;;;;;;;41.13;17.05;;;;;;;;;;5052321;28;20081;-73
2023/01/24 08:44:12;;;;;;;40.25;15.55;;;;;;;;;;5052550;28;20095;-72
2023/01/24 08:46:39;;;;;;;39.38;16.90;;;;;;;;;;5052711;28;20569;-72
2023/01/24 08:49:06;;;;;;;43.95;17.83;;;;;;;;;;5052769;28;20080;-73
2023/01/24 08:51:33;;;;;;;42.58;15.75;;;;;;;;;;5052604;28;20131;-73
2023/01/24 08:54:01;;;;;;;44.63;18.73;;;;;;;;;;5052995;28;20102;-73
2023/01/24 08:56:27;;;;;;;41.30;17.10;;;;;;;;;;5052560;28;20119;-73
2023/01/24 08:58:54;;;;;;;48.65;17.42;;;;;;;;;;5052513;28;20071;-73
2023/01/24 09:01:21;;;;;;;51.42;18.35;;;;;;;;;;5052527;28;20155;-73
2023/01/24 09:03:48;;;;;;;47.15;18.13;;;;;;;;;;5053650;28;20072;-73
2023/01/24 09:06:15;;;;;;;45.00;18.77;;;;;;;;;;5052190;28;20068;-73
2023/01/24 09:08:42;;;;;;;45.80;17.90;;;;;;;;;;5052800;28;20407;-73
2023/01/24 09:11:10;;;;;;;44.47;16.52;;;;;;;;;;5052191;28;20556;-73
2023/01/24 09:13:37;;;;;;;44.47;18.17;;;;;;;;;;5052368;28;20077;-73
2023/01/24 09:16:04;;;;;;;44.60;18.52;;;;;;;;;;5052094;28;20041;-73
2023/01/24 09:18:30;;;;;;;45.60;18.85;;;;;;;;;;5051968;28;20048;-73
2023/01/24 09:21:01;;;;;;;46.22;17.20;;;;;;;;;;5052248;28;20041;-73
2023/01/24 09:23:27;;;;;;;49.53;18.13;;;;;;;;;;5052133;28;20052;-74
2023/01/24 09:25:54;;;;;;;39.42;16.70;;;;;;;;;;5051665;28;20049;-73
2023/01/24 09:28:22;;;;;;;47.25;17.35;;;;;;;;;;5051943;28;20415;-77
2023/01/24 09:30:50;;;;;;;43.22;17.67;;;;;;;;;;5052247;28;20057;-72
2023/01/24 09:33:17;;;;;;;53.80;19.50;;;;;;;;;;5051737;28;20040;-75
2023/01/24 09:35:52;;;;;;;43.30;17.42;;;;;;;;;;5051968;28;20423;-72
2023/01/24 09:38:18;;;;;;;45.40;17.33;;;;;;;;;;5051664;28;20047;-73
2023/01/24 09:40:52;;;;;;;43.45;17.08;;;;;;;;;;5052571;28;20049;-73
2023/01/24 09:43:37;;;;;;;39.28;16.60;;;;;;;;;;5052179;28;20049;-72
2023/01/24 09:46:16;;;;;;;44.53;16.63;;;;;;;;;;5056345;28;20076;-72
2023/01/24 09:48:43;;;;;;;46.25;17.55;;;;;;;;;;5056358;28;20048;-72
2023/01/24 09:51:16;;;;;;;47.63;17.33;;;;;;;;;;5056527;28;20563;-72
2023/01/24 09:53:46;;;;;;;47.47;18.92;;;;;;;;;;5056999;28;20045;-72
2023/01/24 09:56:26;;;;;;;45.05;18.90;;;;;;;;;;5056249;28;20060;-72
2023/01/24 09:59:09;;;;;;;38.85;16.40;;;;;;;;;;5055583;28;20064;-73
2023/01/24 10:01:38;;;;;;;43.25;18.35;;;;;;;;;;5055514;28;20484;-72
2023/01/24 10:04:06;;;;;;;44.42;18.73;;;;;;;;;;5056681;28;20037;-73
2023/01/24 10:06:34;;;;;;;43.90;18.52;;;;;;;;;;5060037;28;20052;-73
2023/01/24 10:09:12;;;;;;;42.00;15.93;;;;;;;;;;5059202;28;20072;-73
2023/01/24 10:11:47;;;;;;;44.17;17.98;;;;;;;;;;5059023;28;20419;-73
2023/01/24 10:14:27;;;;;;;40.22;17.63;;;;;;;;;;5057043;28;20128;-73
2023/01/24 10:17:13;;;;;;;44.97;18.23;;;;;;;;;;5055038;28;20108;-76
2023/01/24 10:19:55;;;;;;;49.88;17.73;;;;;;;;;;5055453;28;20072;-74
2023/01/24 10:23:00;;;;;;;48.42;18.20;;;;;;;;;;5055176;28;20076;-74
2023/01/24 10:25:29;;;;;;;41.05;16.38;;;;;;;;;;5055663;28;20087;-74
2023/01/24 10:28:01;;;;;;;45.28;17.80;;;;;;;;;;5037276;28;20106;-74
2023/01/24 10:30:39;;;;;;;41.05;16.90;;;;;;;;;;5050640;28;20059;-74
2023/01/24 10:33:14;;;;;;;39.42;17.45;;;;;;;;;;5057232;28;20187;-74
2023/01/24 10:35:52;;;;;;;46.22;19.02;;;;;;;;;;5056280;28;20151;-74
2023/01/24 10:38:20;;;;;;;39.67;16.40;;;;;;;;;;5051437;28;20037;-73
2023/01/24 10:40:51;;;;;;;45.65;17.65;;;;;;;;;;5055285;28;20123;-73
2023/01/24 10:43:18;;;;;;;41.22;17.20;;;;;;;;;;5054843;28;20045;-74
2023/01/24 10:45:58;;;;;;;45.88;17.67;;;;;;;;;;5058073;28;20106;-74
2023/01/24 10:48:36;;;;;;;39.28;16.35;;;;;;;;;;5058244;28;20826;-74
2023/01/24 10:51:13;;;;;;;42.45;17.48;;;;;;;;;;5055282;28;20051;-74
2023/01/24 10:53:40;;;;;;;40.28;16.33;;;;;;;;;;5054004;28;20077;-74
2023/01/24 10:56:07;;;;;;;35.75;15.90;;;;;;;;;;5054377;28;20083;-74
2023/01/24 10:58:36;;;;;;;42.95;16.17;;;;;;;;;;5054601;28;20057;-74
2023/01/24 11:01:08;;;;;;;39.78;16.63;;;;;;;;;;5053631;28;20081;-74
2023/01/24 11:03:41;;;;;;;38.78;17.05;;;;;;;;;;5054220;28;20052;-74
2023/01/24 11:06:22;;;;;;;36.40;15.25;;;;;;;;;;5047620;28;20050;-74
2023/01/24 11:08:54;;;;;;;39.53;16.80;;;;;;;;;;5034784;28;20072;-74
2023/01/24 11:11:24;;;;;;;39.17;16.83;;;;;;;;;;5052468;28;20055;-74
2023/01/24 11:13:55;;;;;;;36.35;15.43;;;;;;;;;;5054202;28;20140;-74
2023/01/24 11:16:27;;;;;;;40.63;17.17;;;;;;;;;;5053969;28;20503;-74
2023/01/24 11:18:58;;;;;;;40.00;16.33;;;;;;;;;;5054238;28;20143;-74
2023/01/24 11:21:25;;;;;;;34.30;15.00;;;;;;;;;;5054089;28;20128;-74
2023/01/24 11:24:01;;;;;;;33.90;15.40;;;;;;;;;;5054232;28;20045;-75
2023/01/24 11:26:30;;;;;;;32.78;15.05;;;;;;;;;;5054290;28;20049;-74
2023/01/24 11:28:59;;;;;;;39.55;16.52;;;;;;;;;;5053837;28;20582;-74
2023/01/24 11:31:36;;;;;;;37.67;15.13;;;;;;;;;;5054181;28;20103;-74
2023/01/24 11:34:27;;;;;;;34.05;16.00;;;;;;;;;;5053988;28;20131;-73
2023/01/24 11:37:00;;;;;;;;;;;;;;;;;;5054485;28;20136;-73
2023/01/24 11:39:38;;;;;;;31.73;13.70;;;;;;;;;;5053797;28;20051;-74
2023/01/24 11:42:14;;;;;;;35.22;13.98;;;;;;;;;;5054150;28;20059;-74
2023/01/24 11:45:20;;;;;;;31.60;14.32;;;;;;;;;;5051570;28;20051;-75
2023/01/24 11:47:57;;;;;;;32.25;14.65;;;;;;;;;;5033461;28;20129;-74
2023/01/24 11:50:33;;;;;;;32.35;14.73;;;;;;;;;;5046788;28;20049;-75
2023/01/24 11:53:18;;;;;;;34.22;15.68;;;;;;;;;;5048915;28;20114;-74
2023/01/24 11:55:54;;;;;;;31.08;14.02;;;;;;;;;;5077474;22;20143;-54
2023/01/24 11:58:39;;;;;;;34.50;16.20;;;;;;;;;;5013916;28;20057;-54
2023/01/24 12:01:13;;;;;;;32.92;15.00;;;;;;;;;;5013953;28;20049;-55
2023/01/24 12:03:55;;;;;;;32.80;14.90;;;;;;;;;;5014133;28;20057;-65
2023/01/24 12:06:31;;;;;;;34.22;14.10;;;;;;;;;;5013611;28;20108;-67
2023/01/24 12:09:15;;;;;;;34.47;16.23;;;;;;;;;;5014514;28;20046;-67
2023/01/24 12:11:48;;;;;;;30.52;15.32;;;;;;;;;;5014408;28;20104;-50
2023/01/24 12:14:43;;;;;;;34.05;14.93;;;;;;;;;;5013782;28;20054;-52
2023/01/24 12:17:22;;;;;;;38.08;16.35;;;;;;;;;;5013479;28;20478;-50
2023/01/24 12:20:11;;;;;;;33.78;15.30;;;;;;;;;;5013538;28;20506;-53
2023/01/24 12:22:39;;;;;;;32.10;15.23;;;;;;;;;;5013501;28;20054;-51
2023/01/24 12:25:17;;;;;;;32.03;15.23;;;;;;;;;;5013440;28;20057;-51
2023/01/24 12:27:47;;;;;;;31.55;15.48;;;;;;;;;;5013532;28;20509;-51
2023/01/24 12:30:29;;;;;;;36.83;15.65;;;;;;;;;;5013354;28;20076;-53
2023/01/24 12:33:05;;;;;;;38.40;15.95;;;;;;;;;;5013279;28;20046;-52
2023/01/24 12:35:36;;;;;;;33.03;14.68;;;;;;;;;;5013298;28;20482;-55
2023/01/24 12:38:13;;;;;;;33.83;15.05;;;;;;;;;;5013595;28;20049;-51
2023/01/24 12:40:50;;;;;;;31.63;15.55;;;;;;;;;;5013250;28;20052;-55
2023/01/24 12:43:24;;;;;;;36.67;14.88;;;;;;;;;;5013393;28;20041;-52
2023/01/24 12:45:59;;;;;;;35.55;16.65;;;;;;;;;;5013075;28;20046;-51
2023/01/24 12:48:35;;;;;;;33.58;15.73;;;;;;;;;;5013551;28;20149;-54
2023/01/24 12:51:11;;;;;;;33.65;14.75;;;;;;;;;;5013086;28;20092;-53
2023/01/24 12:53:44;;;;;;;35.70;16.92;;;;;;;;;;5012525;28;20041;-53
2023/01/24 12:56:15;;;;;;;36.30;16.10;;;;;;;;;;4993389;28;20050;-54
2023/01/24 12:58:47;;;;;;;33.80;16.17;;;;;;;;;;4993149;28;20050;-54
2023/01/24 13:01:34;;;;;;;32.85;15.80;;;;;;;;;;4993252;28;20077;-49
2023/01/24 13:04:16;;;;;;;34.80;15.75;;;;;;;;;;4996313;28;20459;-52
2023/01/24 13:06:55;;;;;;;35.08;17.23;;;;;;;;;;5013060;28;20056;-53
2023/01/24 13:09:27;;;;;;;35.03;17.05;;;;;;;;;;5013201;28;20050;-51
2023/01/24 13:11:57;;;;;;;34.58;14.57;;;;;;;;;;5012799;28;20050;-57
2023/01/24 13:14:28;;;;;;;33.55;16.38;;;;;;;;;;5013139;28;20042;-53
2023/01/24 13:17:24;;;;;;;;;;;;;;;;;;5013528;28;20042;-55
2023/01/24 13:20:05;;;;;;;42.85;17.92;;;;;;;;;;4951501;28;19930;-53
2023/01/24 13:22:45;;;;;;;37.88;16.80;;;;;;;;;;5004183;28;20046;-51
2023/01/24 13:25:35;;;;;;;36.03;15.52;;;;;;;;;;5012429;28;20057;-51
2023/01/24 13:28:12;;;;;;;38.28;16.42;;;;;;;;;;5012850;28;20053;-51
2023/01/24 13:30:48;;;;;;;36.55;16.25;;;;;;;;;;5012384;28;20054;-52
2023/01/24 13:33:18;;;;;;;38.20;17.00;;;;;;;;;;5012471;28;20054;-54
2023/01/24 13:35:50;;;;;;;36.35;16.33;;;;;;;;;;5012561;28;20049;-52
2023/01/24 13:38:23;;;;;;;35.88;17.33;;;;;;;;;;5012192;28;20056;-53
2023/01/24 13:40:59;;;;;;;38.10;16.40;;;;;;;;;;5012632;28;20050;-51
2023/01/24 13:43:56;;;;;;;37.25;15.60;;;;;;;;;;5012492;28;20049;-53
2023/01/24 13:46:56;;;;;;;40.47;17.80;;;;;;;;;;5012492;28;20050;-51
2023/01/24 13:49:33;;;;;;;38.35;15.20;;;;;;;;;;5012494;28;20046;-49
2023/01/24 13:52:01;;;;;;;36.85;16.10;;;;;;;;;;5012443;28;20112;-51
2023/01/24 13:54:40;;;;;;;40.33;16.98;;;;;;;;;;5012685;28;20457;-54
2023/01/24 13:57:18;;;;;;;40.10;18.60;;;;;;;;;;5012201;28;20046;-56
2023/01/24 14:00:01;;;;;;;38.05;16.42;;;;;;;;;;5012480;28;20046;-56
2023/01/24 14:02:31;;;;;;;34.90;15.20;;;;;;;;;;5012213;28;20073;-52
2023/01/24 14:04:58;;;;;;;36.85;16.42;;;;;;;;;;5012221;28;20058;-51
2023/01/24 14:07:29;;;;;;;43.03;17.23;;;;;;;;;;5012144;28;20518;-53
2023/01/24 14:10:04;;;;;;;40.03;17.00;;;;;;;;;;5012444;28;20065;-55
2023/01/24 14:12:36;;;;;;;36.42;15.75;;;;;;;;;;5012096;28;20133;-56
2023/01/24 14:15:06;;;;;;;37.92;16.75;;;;;;;;;;5012227;28;20425;-54
2023/01/24 14:17:51;;;;;;;41.20;17.75;;;;;;;;;;5012531;28;20510;-51
2023/01/24 14:20:37;;;;;;;36.05;16.92;;;;;;;;;;5012210;28;20054;-56
2023/01/24 14:23:14;;;;;;;36.67;16.50;;;;;;;;;;5012278;28;20050;-55
2023/01/24 14:29:13;;;;;;;39.53;17.65;;;;;;;;;;5011210;28;20044;-51
2023/01/24 14:31:42;;;;;;;37.88;16.80;;;;;;;;;;5013372;28;20050;-57
2023/01/24 14:37:10;;;;;;;36.58;15.55;;;;;;;;;;4952196;28;20047;-65
2023/01/24 14:39:37;;;;;;;37.70;15.82;;;;;;;;;;5015778;28;20103;-54
2023/01/24 14:42:06;;;;;;;36.45;16.73;;;;;;;;;;5015571;28;20411;-61
2023/01/24 14:44:37;;;;;;;40.10;18.17;;;;;;;;;;5015694;28;20053;-62
2023/01/24 14:47:06;;;;;;;39.92;17.85;;;;;;;;;;5015098;28;20423;-54
2023/01/24 14:49:35;;;;;;;40.35;17.48;;;;;;;;;;5015104;28;20577;-49
2023/01/24 14:52:03;;;;;;;40.72;17.90;;;;;;;;;;5015068;28;20049;-53
2023/01/24 14:54:30;;;;;;;39.55;16.60;;;;;;;;;;5015456;28;20046;-51
2023/01/24 14:56:57;;;;;;;41.05;18.02;;;;;;;;;;5015139;28;20053;-54
2023/01/24 14:59:24;;;;;;;42.55;16.77;;;;;;;;;;5015091;28;20064;-54
2023/01/24 15:01:53;;;;;;;38.42;17.40;;;;;;;;;;5014778;28;20046;-55
2023/01/24 15:04:26;;;;;;;35.97;16.73;;;;;;;;;;5015211;28;20049;-57
2023/01/24 15:07:07;;;;;;;40.08;17.65;;;;;;;;;;5015023;28;20042;-54
2023/01/24 15:12:59;;;;;;;38.28;17.10;;;;;;;;;;5011638;28;20053;-56
2023/01/24 15:15:27;;;;;;;39.30;16.95;;;;;;;;;;5013120;28;20054;-54
2023/01/24 15:18:00;;;;;;;39.67;17.20;;;;;;;;;;5013696;28;20053;-53
2023/01/24 15:20:28;;;;;;;33.95;15.60;;;;;;;;;;5014500;28;20137;-52
2023/01/24 15:22:58;;;;;;;38.08;17.73;;;;;;;;;;5013831;28;20120;-53